createdAt,value
2022-08-08T00:00:51.175Z,96708.63
2022-08-08T00:02:03.749Z,96713.59
2022-08-08T00:03:19.893Z,96716.13
2022-08-08T00:04:35.171Z,96709.72
2022-08-08T00:06:02.746Z,96721.25
2022-08-08T00:07:24.444Z,96713.19
2022-08-08T00:08:43.469Z,96708.75
2022-08-08T00:10:03.511Z,96713.03
2022-08-08T00:11:14.799Z,96714.94
2022-08-08T00:12:24.753Z,96713.88
2022-08-08T00:14:16.902Z,96713.88
2022-08-08T00:15:56.999Z,96707.16
2022-08-08T00:17:23.262Z,96710.56
2022-08-08T00:18:43.934Z,96708.25
2022-08-08T00:19:51.458Z,96719.22
2022-08-08T00:20:56.868Z,96715.25
2022-08-08T00:22:10.238Z,96712.94
2022-08-08T00:23:21.280Z,96717.34
2022-08-08T00:24:37.270Z,96718.25
2022-08-08T00:25:46.419Z,96718.44
2022-08-08T00:26:57.049Z,96716.97
2022-08-08T00:28:02.029Z,96722.09
2022-08-08T00:29:45.053Z,96720.19
2022-08-08T00:31:01.005Z,96725.41
2022-08-08T00:32:35.387Z,96727.53
2022-08-08T00:34:17.226Z,96716.31
2022-08-08T00:35:25.668Z,96725.19
2022-08-08T00:36:35.183Z,96721.59
2022-08-08T00:38:02.313Z,96729.81
2022-08-08T00:41:07.486Z,96729.28
2022-08-08T00:41:10.209Z,96728.72
2022-08-08T00:42:36.781Z,96726.16
2022-08-08T00:43:58.722Z,96732.47
2022-08-08T00:45:39.431Z,96734.56
2022-08-08T00:47:23.272Z,96736.22
2022-08-08T00:48:40.531Z,96727.56
2022-08-08T00:49:50.363Z,96733.72
2022-08-08T00:51:09.788Z,96734.16
2022-08-08T00:52:51.432Z,96722.91
2022-08-08T00:54:28.703Z,96735.66
2022-08-08T00:55:53.149Z,96728.91
2022-08-08T00:57:07.593Z,96731.75
2022-08-08T00:58:55.606Z,96730.75
2022-08-08T01:00:17.241Z,96736.59
2022-08-08T01:01:55.796Z,96745.53
2022-08-08T01:04:01.557Z,96739.19
2022-08-08T01:05:07.287Z,96738.00
2022-08-08T01:06:47.527Z,96739.56
2022-08-08T01:08:01.846Z,96731.34
2022-08-08T01:09:35.100Z,96733.72
2022-08-08T01:11:19.985Z,96743.78
2022-08-08T01:12:41.983Z,96737.91
2022-08-08T01:13:58.213Z,96739.84
2022-08-08T01:15:47.083Z,96736.84
2022-08-08T01:17:13.540Z,96741.13
2022-08-08T01:18:56.758Z,96738.38
2022-08-08T01:20:03.494Z,96737.59
2022-08-08T01:21:14.372Z,96748.47
2022-08-08T01:22:23.590Z,96741.34
2022-08-08T01:24:05.460Z,96748.34
2022-08-08T01:25:40.039Z,96750.72
2022-08-08T01:26:55.763Z,96747.78
2022-08-08T01:28:28.153Z,96745.19
2022-08-08T01:29:59.273Z,96749.19
2022-08-08T01:32:02.878Z,96753.34
2022-08-08T01:33:28.036Z,96745.78
2022-08-08T01:34:44.668Z,96750.19
2022-08-08T01:36:28.431Z,96742.66
2022-08-08T01:38:01.442Z,96747.06
2022-08-08T01:39:42.409Z,96747.78
2022-08-08T01:40:47.688Z,96744.66
2022-08-08T01:42:11.217Z,96743.97
2022-08-08T01:43:45.815Z,96744.34
2022-08-08T01:45:04.416Z,96745.09
2022-08-08T01:46:33.086Z,96736.22
2022-08-08T01:48:23.330Z,96745.63
2022-08-08T01:49:40.549Z,96738.59
2022-08-08T01:51:00.938Z,96747.75
2022-08-08T01:53:28.788Z,96749.75
2022-08-08T01:55:17.135Z,96746.03
2022-08-08T01:56:27.703Z,96749.34
2022-08-08T01:58:11.215Z,96753.56
2022-08-08T01:59:23.913Z,96750.06
2022-08-08T02:00:58.209Z,96754.22
2022-08-08T02:02:34.827Z,96757.13
2022-08-08T02:04:08.778Z,96750.84
2022-08-08T02:05:33.774Z,96760.97
2022-08-08T02:07:00.832Z,96759.03
2022-08-08T02:08:38.648Z,96758.31
2022-08-08T02:10:30.174Z,96759.28
2022-08-08T02:11:59.096Z,96756.25
2022-08-08T02:13:11.032Z,96759.00
2022-08-08T02:14:58.954Z,96760.91
2022-08-08T02:16:20.890Z,96758.22
2022-08-08T02:17:52.729Z,96760.91
2022-08-08T02:19:56.953Z,96759.22
2022-08-08T02:21:32.405Z,96760.00
2022-08-08T02:22:57.125Z,96760.78
2022-08-08T02:24:14.769Z,96757.00
2022-08-08T02:25:47.160Z,96754.66
2022-08-08T02:27:01.682Z,96765.63
2022-08-08T02:28:54.335Z,96764.00
2022-08-08T02:29:55.824Z,96768.72
2022-08-08T02:31:54.128Z,96770.34
2022-08-08T02:33:00.844Z,96772.69
2022-08-08T02:34:09.906Z,96773.03
2022-08-08T02:36:03.794Z,96770.72
2022-08-08T02:37:52.773Z,96774.22
2022-08-08T02:39:42.589Z,96780.44
2022-08-08T02:40:56.727Z,96778.03
2022-08-08T02:42:38.315Z,96771.69
2022-08-08T02:44:42.463Z,96780.00
2022-08-08T02:45:56.702Z,96785.16
2022-08-08T02:47:24.976Z,96786.00
2022-08-08T02:49:14.552Z,96781.38
2022-08-08T02:51:11.761Z,96775.56
2022-08-08T02:52:35.319Z,96781.03
2022-08-08T02:54:07.461Z,96777.91
2022-08-08T02:55:19.831Z,96789.31
2022-08-08T02:56:48.215Z,96790.13
2022-08-08T02:58:15.041Z,96794.88
2022-08-08T02:59:58.537Z,96787.13
2022-08-08T03:01:50.019Z,96787.91
2022-08-08T03:03:10.768Z,96797.97
2022-08-08T03:05:02.764Z,96794.88
2022-08-08T03:06:24.152Z,96797.31
2022-08-08T03:07:58.109Z,96793.06
2022-08-08T03:09:21.770Z,96790.38
2022-08-08T03:10:37.088Z,96787.25
2022-08-08T03:12:14.015Z,96792.72
2022-08-08T03:15:57.395Z,96802.41
2022-08-08T03:15:58.850Z,96795.78
2022-08-08T03:17:09.913Z,96798.09
2022-08-08T03:18:31.099Z,96802.00
2022-08-08T03:20:04.430Z,96805.91
2022-08-08T03:21:14.655Z,96800.06
2022-08-08T03:22:38.779Z,96801.13
2022-08-08T03:23:54.792Z,96796.38
2022-08-08T03:25:14.890Z,96808.72
2022-08-08T03:26:30.843Z,96811.06
2022-08-08T03:27:42.259Z,96807.91
2022-08-08T03:28:47.408Z,96804.78
2022-08-08T03:29:58.580Z,96807.09
2022-08-08T03:31:25.318Z,96799.31
2022-08-08T03:32:53.386Z,96803.94
2022-08-08T03:34:01.222Z,96803.16
2022-08-08T03:35:05.956Z,96814.03
2022-08-08T03:36:19.462Z,96807.78
2022-08-08T03:38:53.755Z,96813.25
2022-08-08T03:38:57.777Z,96816.06
2022-08-08T03:40:10.953Z,96814.91
2022-08-08T03:42:12.711Z,96807.88
2022-08-08T03:42:54.524Z,96813.28
2022-08-08T03:43:59.496Z,96815.19
2022-08-08T03:45:02.241Z,96823.75
2022-08-08T03:46:25.433Z,96824.94
2022-08-08T03:47:39.387Z,96826.56
2022-08-08T03:49:30.151Z,96823.97
2022-08-08T03:50:24.878Z,96826.47
2022-08-08T03:51:50.309Z,96826.03
2022-08-08T03:52:49.877Z,96825.22
2022-08-08T03:53:55.075Z,96821.66
2022-08-08T03:55:10.928Z,96819.28
2022-08-08T03:56:31.988Z,96819.56
2022-08-08T03:58:31.854Z,96821.94
2022-08-08T03:58:55.732Z,96823.84
2022-08-08T04:00:02.756Z,96825.75
2022-08-08T04:01:23.633Z,96822.59
2022-08-08T04:02:47.604Z,96828.91
2022-08-08T04:03:58.748Z,96833.00
2022-08-08T04:05:05.132Z,96829.97
2022-08-08T04:06:11.993Z,96828.47
2022-08-08T04:07:16.398Z,96825.00
2022-08-08T04:08:33.879Z,96833.97
2022-08-08T04:10:02.925Z,96838.31
2022-08-08T04:10:59.679Z,96834.78
2022-08-08T04:12:01.739Z,96834.78
2022-08-08T04:13:17.298Z,96832.06
2022-08-08T04:14:35.432Z,96837.13
2022-08-08T04:15:38.904Z,96838.31
2022-08-08T04:16:41.556Z,96836.75
2022-08-08T04:17:46.305Z,96839.13
2022-08-08T04:19:00.295Z,96840.25
2022-08-08T04:20:04.924Z,96837.91
2022-08-08T04:21:06.712Z,96842.56
2022-08-08T04:22:10.141Z,96851.09
2022-08-08T04:23:11.833Z,96845.63
2022-08-08T04:24:28.718Z,96850.28
2022-08-08T04:25:36.769Z,96853.44
2022-08-08T04:26:57.585Z,96855.41
2022-08-08T04:28:34.284Z,96854.22
2022-08-08T04:29:22.029Z,96847.97
2022-08-08T04:30:24.629Z,96853.75
2022-08-08T04:31:56.960Z,96853.34
2022-08-08T04:32:50.356Z,96853.28
2022-08-08T04:33:52.599Z,96849.38
2022-08-08T04:34:58.402Z,96857.13
2022-08-08T04:36:00.413Z,96855.97
2022-08-08T04:37:03.931Z,96861.78
2022-08-08T04:38:06.282Z,96861.69
2022-08-08T04:40:05.926Z,96868.16
2022-08-08T04:40:33.043Z,96860.69
2022-08-08T04:41:36.877Z,96857.63
2022-08-08T04:42:56.051Z,96856.88
2022-08-08T04:43:59.059Z,96856.47
2022-08-08T04:45:01.042Z,96861.13
2022-08-08T04:46:02.839Z,96865.75
2022-08-08T04:47:05.462Z,96858.34
2022-08-08T04:48:15.019Z,96862.94
2022-08-08T04:49:16.876Z,96867.84
2022-08-08T04:50:24.805Z,96862.66
2022-08-08T04:51:54.980Z,96864.16
2022-08-08T04:53:00.419Z,96861.53
2022-08-08T04:54:38.727Z,96863.94
2022-08-08T04:55:37.701Z,96868.09
2022-08-08T04:56:50.034Z,96864.13
2022-08-08T04:57:51.624Z,96865.22
2022-08-08T04:58:53.415Z,96866.25
2022-08-08T04:59:59.466Z,96866.78
2022-08-08T05:01:05.745Z,96870.00
2022-08-08T05:02:13.680Z,96866.16
2022-08-08T05:03:18.501Z,96865.13
2022-08-08T05:04:37.832Z,96869.25
2022-08-08T05:05:44.932Z,96876.44
2022-08-08T05:06:52.334Z,96881.72
2022-08-08T05:07:54.608Z,96882.66
2022-08-08T05:09:02.653Z,96879.03
2022-08-08T05:10:05.328Z,96879.72
2022-08-08T05:11:09.595Z,96878.47
2022-08-08T05:12:20.615Z,96876.44
2022-08-08T05:13:23.303Z,96872.78
2022-08-08T05:14:29.225Z,96883.44
2022-08-08T05:16:36.372Z,96885.06
2022-08-08T05:17:01.464Z,96883.44
2022-08-08T05:18:03.293Z,96882.28
2022-08-08T05:19:05.764Z,96887.88
2022-08-08T05:20:27.355Z,96878.78
2022-08-08T05:21:29.511Z,96876.25
2022-08-08T05:22:46.187Z,96878.50
2022-08-08T05:23:50.726Z,96881.50
2022-08-08T05:25:06.552Z,96874.69
2022-08-08T05:26:08.142Z,96871.94
2022-08-08T05:27:16.005Z,96876.56
2022-08-08T05:28:48.401Z,96877.94
2022-08-08T05:29:40.786Z,96883.84
2022-08-08T05:30:47.291Z,96885.16
2022-08-08T05:32:04.231Z,96877.94
2022-08-08T05:33:07.282Z,96886.06
2022-08-08T05:35:05.205Z,96880.41
2022-08-08T05:36:10.542Z,96884.69
2022-08-08T05:37:53.418Z,96886.97
2022-08-08T05:38:51.303Z,96885.72
2022-08-08T05:39:57.070Z,96874.84
2022-08-08T05:40:59.181Z,96878.25
2022-08-08T05:42:00.978Z,96884.59
2022-08-08T05:43:17.290Z,96884.53
2022-08-08T05:44:31.160Z,96883.38
2022-08-08T05:45:42.952Z,96874.81
2022-08-08T05:47:03.301Z,96875.09
2022-08-08T05:48:08.157Z,96875.63
2022-08-08T05:49:11.399Z,96878.94
2022-08-08T05:50:13.205Z,96878.69
2022-08-08T05:51:18.057Z,96880.22
2022-08-08T05:52:20.245Z,96874.22
2022-08-08T05:53:56.025Z,96871.88
2022-08-08T05:55:02.034Z,96884.94
2022-08-08T05:56:11.208Z,96878.91
2022-08-08T05:57:36.672Z,96881.44
2022-08-08T05:58:57.045Z,96888.50
2022-08-08T06:00:23.137Z,96889.97
2022-08-08T06:01:56.190Z,96882.91
2022-08-08T06:03:08.023Z,96879.19
2022-08-08T06:04:13.712Z,96874.31
2022-08-08T06:05:34.597Z,96874.97
2022-08-08T06:06:42.140Z,96879.16
2022-08-08T06:07:51.089Z,96879.97
2022-08-08T06:09:00.487Z,96883.38
2022-08-08T06:10:24.755Z,96882.41
2022-08-08T06:11:28.329Z,96884.59
2022-08-08T06:12:33.971Z,96889.69
2022-08-08T06:13:47.392Z,96878.91
2022-08-08T06:14:49.691Z,96885.59
2022-08-08T06:15:54.952Z,96886.09
2022-08-08T06:17:01.065Z,96883.91
2022-08-08T06:18:20.627Z,96889.66
2022-08-08T06:19:24.359Z,96880.16
2022-08-08T06:20:29.786Z,96881.31
2022-08-08T06:21:48.542Z,96883.50
2022-08-08T06:23:04.985Z,96887.41
2022-08-08T06:24:23.137Z,96889.44
2022-08-08T06:26:38.268Z,96893.41
2022-08-08T06:27:04.901Z,96886.31
2022-08-08T06:28:15.199Z,96884.19
2022-08-08T06:30:00.314Z,96876.75
2022-08-08T06:31:00.794Z,96880.81
2022-08-08T06:32:11.463Z,96887.75
2022-08-08T06:33:36.887Z,96884.50
2022-08-08T06:34:56.297Z,96884.94
2022-08-08T06:36:11.641Z,96878.78
2022-08-08T06:37:36.941Z,96878.94
2022-08-08T06:38:45.747Z,96875.53
2022-08-08T06:39:56.296Z,96875.88
2022-08-08T06:41:06.648Z,96876.78
2022-08-08T06:42:13.089Z,96877.03
2022-08-08T06:43:28.326Z,96880.50
2022-08-08T06:44:31.552Z,96878.53
2022-08-08T06:45:34.113Z,96878.28
2022-08-08T06:46:35.974Z,96871.81
2022-08-08T06:47:52.123Z,96884.31
2022-08-08T06:49:00.804Z,96880.81
2022-08-08T06:50:04.144Z,96877.72
2022-08-08T06:51:08.360Z,96875.78
2022-08-08T06:52:10.972Z,96874.28
2022-08-08T06:53:20.450Z,96880.03
2022-08-08T06:54:23.381Z,96870.28
2022-08-08T06:55:25.855Z,96879.66
2022-08-08T06:56:31.166Z,96876.53
2022-08-08T06:57:44.490Z,96869.22
2022-08-08T06:58:55.489Z,96871.88
2022-08-08T07:00:09.931Z,96869.09
2022-08-08T07:02:16.624Z,96869.97
2022-08-08T07:02:45.125Z,96873.97
2022-08-08T07:04:41.592Z,96873.13
2022-08-08T07:05:25.151Z,96871.19
2022-08-08T07:06:34.318Z,96867.00
2022-08-08T07:07:37.123Z,96865.16
2022-08-08T07:08:39.713Z,96872.53
2022-08-08T07:10:07.914Z,96866.63
2022-08-08T07:11:22.556Z,96865.97
2022-08-08T07:12:47.851Z,96863.41
2022-08-08T07:14:00.268Z,96863.47
2022-08-08T07:15:15.370Z,96859.47
2022-08-08T07:17:08.837Z,96856.59
2022-08-08T07:18:36.317Z,96864.53
2022-08-08T07:19:33.589Z,96859.75
2022-08-08T07:20:50.419Z,96857.41
2022-08-08T07:22:11.689Z,96853.09
2022-08-08T07:23:29.990Z,96856.13
2022-08-08T07:24:57.554Z,96858.63
2022-08-08T07:26:03.129Z,96860.56
2022-08-08T07:27:09.348Z,96860.56
2022-08-08T07:28:31.573Z,96848.59
2022-08-08T07:30:02.235Z,96851.91
2022-08-08T07:30:59.151Z,96855.78
2022-08-08T07:32:01.798Z,96845.88
2022-08-08T07:33:06.882Z,96850.31
2022-08-08T07:34:26.747Z,96849.13
2022-08-08T07:35:35.491Z,96857.19
2022-08-08T07:36:48.133Z,96846.75
2022-08-08T07:38:04.861Z,96850.69
2022-08-08T07:39:13.312Z,96850.72
2022-08-08T07:40:29.138Z,96851.09
2022-08-08T07:41:58.827Z,96848.44
2022-08-08T07:42:54.995Z,96836.44
2022-08-08T07:43:59.976Z,96846.19
2022-08-08T07:45:01.851Z,96842.34
2022-08-08T07:46:18.477Z,96833.72
2022-08-08T07:47:38.115Z,96835.84
2022-08-08T07:48:40.210Z,96843.22
2022-08-08T07:49:46.238Z,96826.19
2022-08-08T07:50:55.006Z,96833.47
2022-08-08T07:51:58.162Z,96828.09
2022-08-08T07:53:04.253Z,96832.34
2022-08-08T07:54:41.380Z,96825.47
2022-08-08T07:55:43.093Z,96821.41
2022-08-08T07:57:19.762Z,96819.34
2022-08-08T07:58:31.547Z,96820.63
2022-08-08T07:59:49.517Z,96811.72
2022-08-08T08:01:11.216Z,96819.72
2022-08-08T08:02:35.302Z,96815.31
2022-08-08T08:03:51.240Z,96816.63
2022-08-08T08:05:00.980Z,96815.19
2022-08-08T08:06:06.903Z,96816.66
2022-08-08T08:07:10.499Z,96814.00
2022-08-08T08:08:20.456Z,96811.31
2022-08-08T08:09:26.466Z,96821.16
2022-08-08T08:10:30.248Z,96816.41
2022-08-08T08:11:51.688Z,96808.28
2022-08-08T08:13:01.774Z,96811.28
2022-08-08T08:14:09.597Z,96805.91
2022-08-08T08:15:17.471Z,96801.09
2022-08-08T08:16:23.637Z,96799.53
2022-08-08T08:17:26.027Z,96794.28
2022-08-08T08:18:58.278Z,96798.41
2022-08-08T08:20:04.609Z,96798.72
2022-08-08T08:21:14.518Z,96795.34
2022-08-08T08:22:25.472Z,96786.91
2022-08-08T08:23:40.861Z,96794.03
2022-08-08T08:24:46.328Z,96798.59
2022-08-08T08:25:52.069Z,96784.91
2022-08-08T08:26:58.411Z,96789.34
2022-08-08T08:28:00.433Z,96789.34
2022-08-08T08:29:05.358Z,96790.03
2022-08-08T08:30:08.861Z,96794.31
2022-08-08T08:31:10.587Z,96789.91
2022-08-08T08:32:12.239Z,96787.09
2022-08-08T08:33:26.371Z,96783.69
2022-08-08T08:34:32.424Z,96786.16
2022-08-08T08:36:19.011Z,96786.91
2022-08-08T08:36:56.939Z,96772.69
2022-08-08T08:38:17.598Z,96769.78
2022-08-08T08:39:23.051Z,96771.88
2022-08-08T08:40:26.270Z,96772.50
2022-08-08T08:41:31.034Z,96757.56
2022-08-08T08:42:36.240Z,96773.88
2022-08-08T08:43:42.463Z,96770.06
2022-08-08T08:44:47.722Z,96765.66
2022-08-08T08:45:50.857Z,96764.31
2022-08-08T08:47:00.448Z,96761.91
2022-08-08T08:48:04.717Z,96755.81
2022-08-08T08:49:06.513Z,96759.34
2022-08-08T08:50:27.873Z,96751.22
2022-08-08T08:51:31.864Z,96754.09
2022-08-08T08:52:48.878Z,96759.50
2022-08-08T08:54:03.216Z,96754.03
2022-08-08T08:55:05.606Z,96751.72
2022-08-08T08:56:08.485Z,96752.69
2022-08-08T08:57:17.120Z,96745.06
2022-08-08T08:58:42.252Z,96747.69
2022-08-08T08:59:59.654Z,96744.78
2022-08-08T09:01:08.605Z,96742.13
2022-08-08T09:02:20.891Z,96737.13
2022-08-08T09:03:31.497Z,96732.47
2022-08-08T09:04:50.008Z,96736.88
2022-08-08T09:05:54.902Z,96741.72
2022-08-08T09:06:59.401Z,96738.56
2022-08-08T09:08:13.085Z,96736.28
2022-08-08T09:09:41.184Z,96727.66
2022-08-08T09:10:48.009Z,96728.19
2022-08-08T09:12:02.041Z,96730.06
2022-08-08T09:13:10.680Z,96723.06
2022-08-08T09:14:14.544Z,96725.44
2022-08-08T09:15:37.209Z,96722.13
2022-08-08T09:16:38.999Z,96731.47
2022-08-08T09:17:55.206Z,96718.47
2022-08-08T09:18:58.711Z,96721.03
2022-08-08T09:21:56.298Z,96730.16
2022-08-08T09:21:58.843Z,96722.13
2022-08-08T09:22:45.297Z,96720.31
2022-08-08T09:23:47.799Z,96724.19
2022-08-08T09:24:51.162Z,96714.03
2022-08-08T09:26:32.543Z,96701.00
2022-08-08T09:27:57.650Z,96710.72
2022-08-08T09:29:06.533Z,96698.47
2022-08-08T09:30:14.813Z,96709.06
2022-08-08T09:31:57.600Z,96706.41
2022-08-08T09:33:54.776Z,96701.34
2022-08-08T09:34:32.872Z,96698.34
2022-08-08T09:35:38.460Z,96704.84
2022-08-08T09:37:29.169Z,96694.13
2022-08-08T09:38:53.173Z,96697.44
2022-08-08T09:40:10.847Z,96695.03
2022-08-08T09:41:17.482Z,96689.25
2022-08-08T09:42:25.713Z,96690.00
2022-08-08T09:44:04.596Z,96689.47
2022-08-08T09:45:20.509Z,96693.72
2022-08-08T09:46:34.755Z,96690.91
2022-08-08T09:48:04.076Z,96691.25
2022-08-08T09:49:18.031Z,96694.38
2022-08-08T09:50:32.570Z,96696.25
2022-08-08T09:51:41.682Z,96689.56
2022-08-08T09:53:23.872Z,96691.50
2022-08-08T09:54:36.847Z,96693.81
2022-08-08T09:56:03.547Z,96685.56
2022-08-08T09:57:03.640Z,96682.25
2022-08-08T09:58:07.726Z,96686.22
2022-08-08T09:59:40.423Z,96683.06
2022-08-08T10:00:53.461Z,96674.09
2022-08-08T10:02:03.016Z,96674.56
2022-08-08T10:03:19.981Z,96673.59
2022-08-08T10:04:39.659Z,96676.16
2022-08-08T10:05:46.891Z,96666.59
2022-08-08T10:06:53.035Z,96665.03
2022-08-08T10:08:00.185Z,96668.88
2022-08-08T10:09:03.512Z,96677.69
2022-08-08T10:10:07.074Z,96670.38
2022-08-08T10:12:22.431Z,96664.81
2022-08-08T10:12:38.682Z,96667.34
2022-08-08T10:13:59.682Z,96663.41
2022-08-08T10:15:04.743Z,96665.47
2022-08-08T10:16:20.756Z,96667.84
2022-08-08T10:17:56.147Z,96662.94
2022-08-08T10:18:47.105Z,96659.06
2022-08-08T10:20:00.370Z,96650.06
2022-08-08T10:21:08.286Z,96654.91
2022-08-08T10:22:26.848Z,96648.94
2022-08-08T10:23:41.969Z,96655.31
2022-08-08T10:24:46.904Z,96656.56
2022-08-08T10:25:57.125Z,96647.94
2022-08-08T10:27:05.333Z,96652.97
2022-08-08T10:28:21.688Z,96645.44
2022-08-08T10:29:59.916Z,96652.81
2022-08-08T10:31:20.926Z,96656.16
2022-08-08T10:32:50.963Z,96650.03
2022-08-08T10:36:06.651Z,96649.63
2022-08-08T10:36:41.135Z,96642.19
2022-08-08T10:37:52.410Z,96647.00
2022-08-08T10:39:02.748Z,96641.97
2022-08-08T10:40:19.651Z,96642.72
2022-08-08T10:41:25.915Z,96639.88
2022-08-08T10:42:44.743Z,96632.97
2022-08-08T10:43:50.590Z,96637.38
2022-08-08T10:45:09.277Z,96624.19
2022-08-08T10:46:29.545Z,96630.06
2022-08-08T10:47:43.347Z,96635.88
2022-08-08T10:48:58.438Z,96636.19
2022-08-08T10:50:10.041Z,96627.28
2022-08-08T10:51:17.144Z,96625.69
2022-08-08T10:52:30.985Z,96631.47
2022-08-08T10:53:39.244Z,96634.75
2022-08-08T10:55:06.157Z,96636.00
2022-08-08T10:56:10.282Z,96634.69
2022-08-08T10:57:49.530Z,96625.34
2022-08-08T10:59:03.913Z,96631.03
2022-08-08T11:00:06.344Z,96628.56
2022-08-08T11:01:12.710Z,96629.09
2022-08-08T11:02:32.049Z,96632.13
2022-08-08T11:04:01.449Z,96626.03
2022-08-08T11:05:15.099Z,96625.06
2022-08-08T11:06:19.666Z,96629.09
2022-08-08T11:08:30.241Z,96630.50
2022-08-08T11:09:14.988Z,96629.88
2022-08-08T11:10:29.420Z,96623.13
2022-08-08T11:12:06.126Z,96629.22
2022-08-08T11:13:28.503Z,96620.94
2022-08-08T11:14:28.756Z,96629.59
2022-08-08T11:15:31.236Z,96614.78
2022-08-08T11:16:35.974Z,96620.50
2022-08-08T11:17:59.630Z,96626.22
2022-08-08T11:19:04.630Z,96620.09
2022-08-08T11:20:12.287Z,96617.03
2022-08-08T11:21:20.448Z,96616.06
2022-08-08T11:22:27.542Z,96617.59
2022-08-08T11:23:35.034Z,96619.59
2022-08-08T11:24:37.790Z,96615.78
2022-08-08T11:25:52.005Z,96617.22
2022-08-08T11:26:57.935Z,96607.84
2022-08-08T11:28:01.603Z,96609.91
2022-08-08T11:29:06.195Z,96610.06
2022-08-08T11:30:20.456Z,96610.06
2022-08-08T11:31:29.992Z,96613.16
2022-08-08T11:32:47.321Z,96607.78
2022-08-08T11:34:03.143Z,96614.09
2022-08-08T11:35:24.517Z,96606.28
2022-08-08T11:36:36.497Z,96607.00
2022-08-08T11:38:35.919Z,96607.72
2022-08-08T11:39:03.049Z,96598.25
2022-08-08T11:40:07.277Z,96592.69
2022-08-08T11:41:09.585Z,96598.34
2022-08-08T11:42:12.396Z,96592.38
2022-08-08T11:43:18.527Z,96596.66
2022-08-08T11:44:29.087Z,96593.13
2022-08-08T11:45:39.818Z,96591.31
2022-08-08T11:46:57.865Z,96590.19
2022-08-08T11:48:04.541Z,96593.69
2022-08-08T11:49:14.006Z,96590.47
2022-08-08T11:50:23.241Z,96584.38
2022-08-08T11:51:29.891Z,96593.63
2022-08-08T11:52:43.723Z,96595.13
2022-08-08T11:53:55.099Z,96586.78
2022-08-08T11:55:03.010Z,96588.00
2022-08-08T11:56:18.949Z,96596.09
2022-08-08T11:57:27.546Z,96592.63
2022-08-08T11:58:34.951Z,96591.47
2022-08-08T12:00:01.939Z,96587.75
2022-08-08T12:01:12.248Z,96592.69
2022-08-08T12:02:31.873Z,96590.97
2022-08-08T12:03:34.709Z,96591.72
2022-08-08T12:04:39.549Z,96588.66
2022-08-08T12:05:41.835Z,96587.13
2022-08-08T12:06:44.926Z,96592.31
2022-08-08T12:07:52.929Z,96589.59
2022-08-08T12:09:05.040Z,96585.34
2022-08-08T12:10:15.040Z,96589.63
2022-08-08T12:11:27.022Z,96592.84
2022-08-08T12:12:41.692Z,96594.50
2022-08-08T12:14:03.684Z,96595.34
2022-08-08T12:15:06.294Z,96597.44
2022-08-08T12:16:15.607Z,96593.41
2022-08-08T12:17:17.450Z,96590.13
2022-08-08T12:18:26.070Z,96591.72
2022-08-08T12:19:37.458Z,96585.47
2022-08-08T12:20:53.205Z,96590.03
2022-08-08T12:22:08.899Z,96583.47
2022-08-08T12:23:30.452Z,96581.53
2022-08-08T12:24:48.418Z,96585.13
2022-08-08T12:25:56.794Z,96584.13
2022-08-08T12:26:59.184Z,96584.94
2022-08-08T12:28:16.674Z,96585.53
2022-08-08T12:29:40.580Z,96588.88
2022-08-08T12:30:48.188Z,96582.31
2022-08-08T12:32:09.556Z,96587.16
2022-08-08T12:33:37.036Z,96582.94
2022-08-08T12:35:04.865Z,96586.53
2022-08-08T12:36:16.382Z,96579.44
2022-08-08T12:37:41.462Z,96580.19
2022-08-08T12:38:50.301Z,96577.94
2022-08-08T12:40:23.084Z,96585.81
2022-08-08T12:41:35.352Z,96579.34
2022-08-08T12:42:48.835Z,96579.16
2022-08-08T12:43:59.920Z,96573.59
2022-08-08T12:45:53.804Z,96564.00
2022-08-08T12:46:29.063Z,96576.66
2022-08-08T12:47:58.803Z,96574.16
2022-08-08T12:50:25.900Z,96576.69
2022-08-08T12:51:39.868Z,96571.38
2022-08-08T12:52:42.531Z,96580.63
2022-08-08T12:54:00.467Z,96568.75
2022-08-08T12:55:13.608Z,96571.28
2022-08-08T12:56:23.851Z,96567.78
2022-08-08T12:57:26.271Z,96561.44
2022-08-08T12:58:30.261Z,96567.78
2022-08-08T12:59:36.185Z,96568.31
2022-08-08T13:00:46.691Z,96560.47
2022-08-08T13:01:58.371Z,96557.97
2022-08-08T13:03:01.161Z,96560.53
2022-08-08T13:04:24.242Z,96556.97
2022-08-08T13:06:02.964Z,96550.94
2022-08-08T13:07:03.999Z,96556.72
2022-08-08T13:08:18.151Z,96551.66
2022-08-08T13:10:00.778Z,96554.19
2022-08-08T13:11:02.478Z,96550.88
2022-08-08T13:12:29.018Z,96544.59
2022-08-08T13:13:36.800Z,96547.94
2022-08-08T13:14:52.956Z,96549.00
2022-08-08T13:15:56.165Z,96538.56
2022-08-08T13:16:59.423Z,96537.13
2022-08-08T13:18:11.065Z,96537.16
2022-08-08T13:19:18.210Z,96535.13
2022-08-08T13:20:24.049Z,96538.94
2022-08-08T13:21:48.827Z,96532.38
2022-08-08T13:22:59.278Z,96534.97
2022-08-08T13:24:23.621Z,96535.47
2022-08-08T13:25:35.754Z,96530.66
2022-08-08T13:26:37.662Z,96528.31
2022-08-08T13:27:39.859Z,96527.06
2022-08-08T13:28:42.479Z,96528.59
2022-08-08T13:29:53.113Z,96532.84
2022-08-08T13:30:56.921Z,96525.75
2022-08-08T13:32:03.559Z,96532.72
2022-08-08T13:33:05.560Z,96530.16
2022-08-08T13:34:11.743Z,96532.59
2022-08-08T13:35:29.785Z,96533.63
2022-08-08T13:36:40.574Z,96529.28
2022-08-08T13:38:04.654Z,96532.31
2022-08-08T13:39:07.642Z,96533.28
2022-08-08T13:40:11.274Z,96530.69
2022-08-08T13:41:19.972Z,96522.59
2022-08-08T13:42:25.343Z,96531.22
2022-08-08T13:43:27.650Z,96522.59
2022-08-08T13:44:31.283Z,96529.44
2022-08-08T13:45:33.051Z,96532.22
2022-08-08T13:46:37.099Z,96529.72
2022-08-08T13:47:40.310Z,96527.00
2022-08-08T13:50:32.286Z,96522.72
2022-08-08T13:50:35.038Z,96528.56
2022-08-08T13:51:41.696Z,96526.59
2022-08-08T13:52:51.055Z,96522.09
2022-08-08T13:54:00.743Z,96524.38
2022-08-08T13:55:05.891Z,96518.81
2022-08-08T13:56:11.333Z,96520.06
2022-08-08T13:57:16.332Z,96528.97
2022-08-08T13:58:20.173Z,96523.13
2022-08-08T13:59:46.484Z,96520.06
2022-08-08T14:00:50.754Z,96521.34
2022-08-08T14:01:57.141Z,96523.63
2022-08-08T14:03:19.969Z,96524.44
2022-08-08T14:04:28.556Z,96517.84
2022-08-08T14:05:34.367Z,96526.47
2022-08-08T14:06:44.682Z,96519.66
2022-08-08T14:07:50.019Z,96528.28
2022-08-08T14:08:56.866Z,96524.47
2022-08-08T14:10:16.945Z,96513.34
2022-08-08T14:11:21.733Z,96522.19
2022-08-08T14:12:30.207Z,96518.69
2022-08-08T14:13:33.902Z,96517.91
2022-08-08T14:14:41.266Z,96516.94
2022-08-08T14:15:46.374Z,96515.91
2022-08-08T14:16:52.453Z,96513.63
2022-08-08T14:17:58.236Z,96516.41
2022-08-08T14:19:29.759Z,96517.38
2022-08-08T14:20:56.526Z,96516.84
2022-08-08T14:21:59.833Z,96511.88
2022-08-08T14:23:21.537Z,96513.66
2022-08-08T14:24:34.774Z,96509.59
2022-08-08T14:25:46.427Z,96516.41
2022-08-08T14:26:55.820Z,96513.34
2022-08-08T14:28:08.228Z,96515.34
2022-08-08T14:29:30.084Z,96509.75
2022-08-08T14:30:35.252Z,96512.28
2022-08-08T14:32:10.529Z,96502.13
2022-08-08T14:33:15.216Z,96505.94
2022-08-08T14:34:23.329Z,96509.75
2022-08-08T14:35:36.173Z,96511.72
2022-08-08T14:36:40.646Z,96504.63
2022-08-08T14:37:57.163Z,96501.78
2022-08-08T14:39:01.194Z,96502.31
2022-08-08T14:40:05.712Z,96496.03
2022-08-08T14:41:12.139Z,96501.13
2022-08-08T14:42:13.831Z,96509.03
2022-08-08T14:43:31.311Z,96496.91
2022-08-08T14:44:41.917Z,96500.47
2022-08-08T14:46:02.057Z,96506.84
2022-08-08T14:47:20.999Z,96498.50
2022-08-08T14:48:34.435Z,96498.03